Valley Home, California
Current Conditions -  °F | °C
As of 1:53 AM on Friday 31 Oct 2014 (Local Time) from KMOD Reporting Station
Clear Clear  
Wind Chill: 60°   Ceiling: Unl
Heat Index: 60°   Visibility: 10mi
Dew Point: 52°   Wind: 3mph
Humidity: 75%   Direction: 20°NNE
Pressure: 29.89"   Gusts: NA
Location:  37.7848°N, 120.772°W
Report Text: KMOD 310853Z AUTO 02003KT 10SM CLR 16/11 A2989 RMK AO2 SLP121 T01560111 53008
Loading
Personal Weather Stations






























Interactive Weather Map
Tropical Storm Tracking
New forecast layout! Learn more

10-Day Weather Forecast

Advertisements
Track Severe Weather on mobile